Time;durP1;ratioP1;P1;durP2;ratioP2;P2;SDS_P1;SDS_P2;PMS_P1;PMS_P2;Temp;Humidity;BMP_temperature;BMP_pressure;BME280_temperature;BME280_humidity;BME280_pressure;Samples;Min_cycle;Max_cycle;Signal;HPM_P1;HPM_P2
2023/06/07 00:01:14;;;;;;;1.27;1.15;;;;;;;32.83;26.83;100675.84;7393704;19;20047;-84
2023/06/07 00:03:41;;;;;;;2.45;1.10;;;;;;;32.88;27.02;100677.66;7393947;19;20017;-83
2023/06/07 00:06:09;;;;;;;2.00;1.10;;;;;;;32.70;26.41;100687.88;7396417;19;20026;-84
2023/06/07 00:08:35;;;;;;;1.95;1.30;;;;;;;32.64;26.67;100686.69;7393262;19;20026;-84
2023/06/07 00:11:02;;;;;;;2.78;1.05;;;;;;;32.77;26.87;100675.41;7395274;19;20037;-84
2023/06/07 00:13:28;;;;;;;2.88;1.33;;;;;;;32.63;26.66;100680.19;7398469;19;20485;-84
2023/06/07 00:15:54;;;;;;;2.03;1.60;;;;;;;32.68;26.56;100676.19;7391767;19;20014;-84
2023/06/07 00:18:20;;;;;;;4.80;1.95;;;;;;;32.44;26.84;100680.22;7397624;19;20007;-85
2023/06/07 00:20:49;;;;;;;4.85;1.30;;;;;;;32.46;26.97;100685.34;7394379;19;20027;-85
2023/06/07 00:23:16;;;;;;;2.08;1.25;;;;;;;32.30;27.09;100681.28;7396642;19;20024;-85
2023/06/07 00:25:42;;;;;;;1.48;0.80;;;;;;;32.22;27.20;100681.44;7394608;19;20014;-85
2023/06/07 00:28:08;;;;;;;0.98;0.98;;;;;;;32.22;27.13;100680.69;7393795;19;20011;-85
2023/06/07 00:30:34;;;;;;;1.77;0.73;;;;;;;32.15;27.02;100673.72;7393242;19;20409;-85
2023/06/07 00:33:00;;;;;;;0.85;0.80;;;;;;;32.01;26.79;100672.69;7393614;19;20022;-84
2023/06/07 00:35:27;;;;;;;5.97;1.63;;;;;;;32.07;26.84;100676.00;7396648;19;20022;-85
2023/06/07 00:37:53;;;;;;;1.85;1.27;;;;;;;32.07;26.86;100673.13;7394887;19;20382;-85
2023/06/07 00:40:19;;;;;;;2.83;2.55;;;;;;;32.15;27.21;100667.94;7393980;19;20078;-83
2023/06/07 00:42:46;;;;;;;2.95;1.00;;;;;;;32.12;27.39;100672.81;7395935;19;20026;-83
2023/06/07 00:45:12;;;;;;;2.17;1.55;;;;;;;32.30;26.72;100670.50;7396610;19;20039;-83
2023/06/07 00:47:39;;;;;;;1.83;0.85;;;;;;;32.26;26.61;100675.97;7395347;19;20018;-83
2023/06/07 00:50:06;;;;;;;3.38;1.10;;;;;;;32.24;27.23;100678.72;7393884;19;20018;-84
2023/06/07 00:52:34;;;;;;;1.38;1.27;;;;;;;32.17;27.14;100677.50;7393347;19;20014;-83
2023/06/07 00:55:02;;;;;;;0.93;0.55;;;;;;;32.23;26.93;100687.97;7395791;19;20014;-83
2023/06/07 00:57:29;;;;;;;2.13;0.60;;;;;;;32.45;26.84;100690.34;7393748;19;20021;-83
2023/06/07 00:59:56;;;;;;;0.70;0.70;;;;;;;32.67;26.75;100686.25;7390761;19;20373;-83
2023/06/07 01:02:22;;;;;;;0.57;0.57;;;;;;;32.72;27.03;100676.50;7393545;19;20010;-83
2023/06/07 01:04:49;;;;;;;3.60;0.50;;;;;;;32.63;26.64;100674.41;7394424;19;20033;-83
2023/06/07 01:07:17;;;;;;;1.60;1.10;;;;;;;32.80;26.74;100677.09;7392027;19;20052;-83
2023/06/07 01:09:43;;;;;;;2.28;1.65;;;;;;;32.88;26.52;100674.78;7393618;19;20022;-83
2023/06/07 01:12:14;;;;;;;5.30;1.30;;;;;;;32.62;26.74;100667.13;7393164;19;20018;-83
2023/06/07 01:14:42;;;;;;;3.83;1.48;;;;;;;32.58;26.86;100671.84;7394265;19;20030;-83
2023/06/07 01:17:08;;;;;;;1.58;0.55;;;;;;;32.63;26.75;100662.09;7393594;19;20366;-83
2023/06/07 01:19:36;;;;;;;3.60;0.55;;;;;;;32.64;26.80;100670.16;7391930;19;20027;-83
2023/06/07 01:22:06;;;;;;;3.25;1.45;;;;;;;32.41;26.98;100669.88;7393888;19;20015;-83
2023/06/07 01:24:35;;;;;;;2.88;0.88;;;;;;;32.19;27.23;100665.34;7394668;19;20469;-83
2023/06/07 01:27:04;;;;;;;4.07;1.30;;;;;;;20.51;40.89;100681.19;7392770;19;20025;-83
2023/06/07 01:29:31;;;;;;;10.68;1.70;;;;;;;17.86;56.59;100694.22;7389161;19;20011;-83
2023/06/07 01:32:00;;;;;;;1.63;0.73;;;;;;;28.76;34.82;100670.41;7393565;19;20014;-83
2023/06/07 01:34:27;;;;;;;1.38;1.05;;;;;;;31.11;31.34;100670.03;7392421;19;20035;-83
2023/06/07 01:36:55;;;;;;;1.52;1.27;;;;;;;31.65;30.18;100664.13;7388181;19;20043;-83
2023/06/07 01:39:24;;;;;;;1.27;1.08;;;;;;;31.91;29.73;100666.09;7384570;19;20512;-83
2023/06/07 01:41:51;;;;;;;2.35;1.50;;;;;;;32.03;29.30;100661.28;7389079;19;20066;-83
2023/06/07 01:44:18;;;;;;;4.47;1.02;;;;;;;32.16;29.12;100660.81;7389295;19;20101;-83
2023/06/07 01:46:46;;;;;;;1.15;0.98;;;;;;;32.11;28.76;100659.75;7392832;19;20015;-83
2023/06/07 01:49:13;;;;;;;3.08;1.52;;;;;;;31.92;28.60;100661.88;7387299;19;20033;-83
2023/06/07 01:51:39;;;;;;;3.30;1.23;;;;;;;31.97;29.00;100660.81;7391697;19;20018;-83
2023/06/07 01:54:06;;;;;;;2.20;1.30;;;;;;;32.11;28.84;100656.88;7392306;19;20111;-83
2023/06/07 01:57:26;;;;;;;4.75;1.40;;;;;;;32.26;28.47;100658.69;7386862;19;20052;-84
2023/06/07 02:00:00;;;;;;;0.50;0.50;;;;;;;32.39;28.38;100663.97;7389792;19;20085;-83
2023/06/07 02:02:52;;;;;;;3.42;0.85;;;;;;;32.47;28.07;100658.00;7390660;19;20034;-83
2023/06/07 02:05:28;;;;;;;1.42;1.30;;;;;;;32.21;28.22;100656.84;7394259;19;20042;-83
2023/06/07 02:07:58;;;;;;;4.57;1.40;;;;;;;32.25;27.88;100657.16;7391442;19;20026;-83
2023/06/07 02:10:26;;;;;;;1.80;1.17;;;;;;;32.08;28.02;100654.44;7390383;19;20041;-82
2023/06/07 02:12:54;;;;;;;3.13;1.13;;;;;;;31.98;28.16;100650.81;7390433;19;20015;-83
2023/06/07 02:15:21;;;;;;;2.42;1.50;;;;;;;31.92;28.19;100653.22;7393367;19;20022;-83
2023/06/07 02:18:01;;;;;;;1.70;1.42;;;;;;;31.96;28.09;100653.56;7391504;19;20018;-83
2023/06/07 02:20:28;;;;;;;1.80;1.38;;;;;;;32.12;27.95;100651.84;7390116;19;20018;-83
2023/06/07 02:22:56;;;;;;;2.75;1.42;;;;;;;32.11;27.54;100644.59;7391291;19;20102;-83
2023/06/07 02:25:23;;;;;;;2.30;1.38;;;;;;;32.00;27.73;100642.31;7394277;19;20619;-83
2023/06/07 02:27:51;;;;;;;3.45;1.35;;;;;;;32.14;27.87;100643.34;7389376;19;20018;-83
2023/06/07 02:30:17;;;;;;;0.68;0.68;;;;;;;32.23;27.83;100639.69;7390897;19;20014;-84
2023/06/07 02:32:48;;;;;;;1.15;0.75;;;;;;;32.11;27.72;100642.47;7390396;19;20073;-83
2023/06/07 02:35:15;;;;;;;;;;;;;;;32.33;27.58;100639.69;7395147;19;20007;-83
2023/06/07 02:37:41;;;;;;;2.83;0.88;;;;;;;32.21;27.42;100633.78;7388912;19;19922;-83
2023/06/07 02:40:11;;;;;;;0.52;0.52;;;;;;;32.41;27.41;100638.16;7392030;19;20018;-83
2023/06/07 02:42:42;;;;;;;1.95;0.80;;;;;;;32.21;27.55;100639.56;7391265;19;20406;-84
2023/06/07 02:45:09;;;;;;;5.53;2.00;;;;;;;32.11;27.60;100635.94;7393053;19;20028;-83
2023/06/07 02:47:36;;;;;;;3.13;0.85;;;;;;;32.18;27.89;100635.03;7391295;19;20480;-83
2023/06/07 02:50:03;;;;;;;2.40;1.35;;;;;;;32.02;27.55;100628.81;7389864;19;20030;-83
2023/06/07 02:52:30;;;;;;;2.05;1.20;;;;;;;31.92;28.04;100633.06;7389235;19;20006;-83
2023/06/07 02:54:56;;;;;;;1.90;1.67;;;;;;;31.95;27.98;100628.97;7391658;19;20027;-83
2023/06/07 02:57:23;;;;;;;2.05;1.08;;;;;;;31.74;27.84;100626.69;7389130;19;20097;-83
2023/06/07 02:59:49;;;;;;;4.28;1.83;;;;;;;31.62;28.29;100627.91;7389465;19;20030;-83
2023/06/07 03:02:20;;;;;;;3.40;1.33;;;;;;;31.91;27.85;100629.41;7388534;19;20022;-83
2023/06/07 03:04:50;;;;;;;3.88;1.73;;;;;;;32.20;27.48;100631.53;7391665;19;20111;-83
2023/06/07 03:07:20;;;;;;;6.50;1.35;;;;;;;32.37;27.20;100617.69;7389017;19;20021;-83
2023/06/07 03:09:47;;;;;;;0.80;0.80;;;;;;;32.31;27.12;100634.53;7389897;19;20014;-83
2023/06/07 03:12:15;;;;;;;1.20;1.08;;;;;;;32.35;27.56;100623.31;7391167;19;20497;-83
2023/06/07 03:14:47;;;;;;;2.28;1.00;;;;;;;32.40;26.78;100622.22;7391378;19;20660;-83
2023/06/07 03:17:17;;;;;;;1.95;0.77;;;;;;;32.64;26.74;100620.34;7388645;19;20010;-83
2023/06/07 03:19:45;;;;;;;2.45;1.08;;;;;;;32.84;26.56;100613.13;7389163;19;20018;-82
2023/06/07 03:22:11;;;;;;;1.90;1.02;;;;;;;32.76;26.99;100619.09;7389824;19;20015;-83
2023/06/07 03:24:39;;;;;;;1.75;0.65;;;;;;;32.89;26.95;100615.69;7399300;19;20018;-83
2023/06/07 03:27:08;;;;;;;0.68;0.68;;;;;;;32.76;26.55;100626.97;7396484;19;20031;-82
2023/06/07 03:29:35;;;;;;;2.55;1.13;;;;;;;32.76;26.96;100619.09;7395732;19;20633;-83
2023/06/07 03:32:02;;;;;;;1.83;0.80;;;;;;;32.63;26.92;100621.72;7395815;19;20530;-83
2023/06/07 03:34:32;;;;;;;0.80;0.80;;;;;;;32.69;26.60;100622.91;7397089;19;20013;-84
2023/06/07 03:37:00;;;;;;;1.70;0.70;;;;;;;32.95;26.59;100620.34;7392927;19;20465;-84
2023/06/07 03:39:27;;;;;;;0.70;0.70;;;;;;;32.89;26.37;100618.56;7388732;19;20015;-84
2023/06/07 03:41:54;;;;;;;3.95;1.05;;;;;;;32.84;26.79;100622.53;7391754;19;20047;-84
2023/06/07 03:44:24;;;;;;;3.25;1.15;;;;;;;32.78;26.41;100622.13;7392235;19;20014;-83
2023/06/07 03:46:51;;;;;;;2.97;0.77;;;;;;;32.74;26.56;100616.06;7390079;19;20007;-82
2023/06/07 03:49:17;;;;;;;1.80;1.05;;;;;;;32.41;27.02;100612.19;7387891;19;20010;-82
2023/06/07 03:51:43;;;;;;;1.17;0.75;;;;;;;32.43;27.21;100615.22;7391923;19;20014;-85
2023/06/07 03:54:10;;;;;;;3.75;1.40;;;;;;;32.63;26.70;100613.84;7396248;19;20026;-84
2023/06/07 03:56:37;;;;;;;1.17;0.85;;;;;;;32.46;27.07;100608.25;7396917;19;20031;-85
2023/06/07 03:59:06;;;;;;;1.25;1.15;;;;;;;32.64;26.74;100600.91;7392399;19;20011;-85
2023/06/07 04:01:33;;;;;;;3.90;1.42;;;;;;;32.65;26.35;100598.78;7394834;19;20496;-84
2023/06/07 04:04:00;;;;;;;4.50;1.65;;;;;;;32.63;26.39;100602.28;7398573;19;20010;-84
2023/06/07 04:06:27;;;;;;;1.63;0.95;;;;;;;32.72;26.70;100600.72;7393959;19;20070;-84
2023/06/07 04:08:56;;;;;;;2.22;1.08;;;;;;;32.73;26.46;100591.47;7392455;19;20039;-85
2023/06/07 04:11:26;;;;;;;2.15;1.42;;;;;;;32.72;26.80;100592.84;7394068;19;20033;-83
2023/06/07 04:13:53;;;;;;;2.60;1.92;;;;;;;32.67;26.85;100593.16;7395289;19;20318;-83
2023/06/07 04:16:21;;;;;;;5.43;1.00;;;;;;;32.56;27.02;100588.78;7392818;19;20632;-84
2023/06/07 04:18:49;;;;;;;2.17;0.85;;;;;;;32.52;26.89;100588.50;7396516;19;20015;-86
2023/06/07 04:21:16;;;;;;;1.70;1.50;;;;;;;32.47;26.53;100597.44;7394269;19;20018;-84
2023/06/07 04:23:44;;;;;;;1.38;0.55;;;;;;;32.43;27.09;100592.16;7394303;19;20011;-83
2023/06/07 04:26:18;;;;;;;3.38;1.05;;;;;;;21.42;38.96;100619.13;7393628;19;20018;-84
2023/06/07 04:28:45;;;;;;;1.30;1.20;;;;;;;17.87;54.64;100623.25;7392230;19;20019;-84
2023/06/07 04:31:13;;;;;;;8.48;1.00;;;;;;;16.64;69.44;100632.22;7393903;19;20578;-84
2023/06/07 04:33:40;;;;;;;2.17;1.10;;;;;;;28.02;37.91;100610.81;7394442;19;20015;-84
2023/06/07 04:36:08;;;;;;;1.65;0.85;;;;;;;30.07;33.34;100610.59;7390333;19;20021;-84
2023/06/07 04:38:39;;;;;;;4.22;1.00;;;;;;;30.87;32.16;100616.34;7392012;19;20809;-84
2023/06/07 04:41:08;;;;;;;3.20;0.88;;;;;;;31.16;31.09;100613.56;7393278;19;20018;-84
2023/06/07 04:43:40;;;;;;;1.52;1.40;;;;;;;31.25;30.34;100604.94;7397599;19;20469;-84
2023/06/07 04:46:10;;;;;;;7.20;1.38;;;;;;;31.37;30.29;100617.38;7393668;19;20017;-84
2023/06/07 04:48:40;;;;;;;0.85;0.47;;;;;;;31.71;29.69;100606.97;7392509;19;20015;-84
2023/06/07 04:51:07;;;;;;;1.27;1.10;;;;;;;31.66;29.60;100619.56;7394176;19;20080;-84
2023/06/07 04:53:41;;;;;;;4.53;1.60;;;;;;;31.68;29.25;100616.81;7395952;19;20469;-84
2023/06/07 04:56:11;;;;;;;2.35;1.15;;;;;;;32.00;29.10;100610.63;7394748;19;20014;-83
2023/06/07 04:58:40;;;;;;;3.53;1.08;;;;;;;31.94;28.97;100613.03;7392049;19;20011;-85
2023/06/07 05:01:10;;;;;;;2.60;1.02;;;;;;;31.97;29.06;100612.59;7392897;19;20019;-85
2023/06/07 05:03:42;;;;;;;3.00;1.70;;;;;;;31.87;28.68;100611.81;7392246;19;20019;-85
2023/06/07 05:06:09;;;;;;;5.47;1.45;;;;;;;31.81;28.89;100616.38;7393435;19;20374;-85
2023/06/07 05:08:36;;;;;;;1.92;1.63;;;;;;;31.64;29.23;100610.78;7391855;19;20025;-85
2023/06/07 05:11:02;;;;;;;1.90;1.38;;;;;;;30.70;29.71;100619.28;7392469;19;20007;-85
2023/06/07 05:13:28;;;;;;;2.67;0.73;;;;;;;31.10;29.66;100610.97;7396625;19;20014;-85
2023/06/07 05:15:58;;;;;;;2.47;1.83;;;;;;;31.54;29.26;100604.22;7390622;19;20010;-85
2023/06/07 05:18:27;;;;;;;3.00;0.80;;;;;;;31.63;29.19;100597.72;7393749;19;20018;-85
2023/06/07 05:20:54;;;;;;;2.70;1.52;;;;;;;31.67;28.75;100600.91;7391374;19;20007;-85
2023/06/07 05:23:21;;;;;;;4.32;1.02;;;;;;;31.67;28.53;100603.78;7392123;19;20019;-85
2023/06/07 05:25:51;;;;;;;1.65;1.30;;;;;;;31.84;28.57;100603.63;7391727;19;20010;-84
2023/06/07 05:28:17;;;;;;;8.43;1.38;;;;;;;31.94;28.53;100607.25;7390477;19;20036;-85
2023/06/07 05:30:49;;;;;;;23.90;1.42;;;;;;;32.15;28.09;100608.19;7392038;19;20026;-85
2023/06/07 05:33:16;;;;;;;1.92;1.02;;;;;;;32.10;28.16;100608.47;7391625;19;20070;-86
2023/06/07 05:35:46;;;;;;;1.00;0.70;;;;;;;31.98;27.87;100605.47;7390270;19;20020;-85
2023/06/07 05:38:13;;;;;;;1.27;0.40;;;;;;;32.01;27.78;100615.03;7390384;19;20025;-84
2023/06/07 05:40:39;;;;;;;0.98;0.70;;;;;;;32.07;27.65;100621.22;7391656;19;20019;-85
2023/06/07 05:43:06;;;;;;;2.22;0.98;;;;;;;32.06;27.68;100616.81;7395034;19;20022;-85
2023/06/07 05:45:33;;;;;;;3.40;1.23;;;;;;;32.07;27.88;100612.59;7390742;19;20021;-84
2023/06/07 05:47:59;;;;;;;0.80;0.80;;;;;;;31.83;27.88;100619.41;7387902;19;20351;-85
2023/06/07 05:50:26;;;;;;;3.70;1.52;;;;;;;31.93;28.08;100620.16;7390923;19;20121;-85
2023/06/07 05:52:57;;;;;;;1.48;0.77;;;;;;;31.96;27.64;100622.63;7392009;19;20011;-85
2023/06/07 05:55:27;;;;;;;4.30;1.08;;;;;;;32.10;27.83;100620.00;7390254;19;20103;-85
2023/06/07 05:57:57;;;;;;;2.42;1.50;;;;;;;32.32;27.12;100609.34;7392148;19;20022;-85
2023/06/07 06:00:23;;;;;;;1.98;1.35;;;;;;;32.39;27.64;100614.94;7392311;19;20481;-85
2023/06/07 06:02:50;;;;;;;1.48;1.02;;;;;;;32.57;27.17;100613.38;7392546;19;20010;-85
2023/06/07 06:05:16;;;;;;;1.48;0.85;;;;;;;32.96;26.89;100619.00;7390762;19;20576;-85
2023/06/07 06:07:42;;;;;;;4.00;1.38;;;;;;;32.99;26.98;100620.63;7389353;19;20028;-84
2023/06/07 06:10:09;;;;;;;2.42;1.17;;;;;;;33.06;27.08;100622.59;7391325;19;20018;-85
2023/06/07 06:12:35;;;;;;;3.80;1.75;;;;;;;33.04;26.67;100620.34;7394961;19;20094;-85
2023/06/07 06:15:01;;;;;;;2.28;1.92;;;;;;;33.03;26.52;100618.09;7389920;19;20010;-86
2023/06/07 06:17:27;;;;;;;2.03;1.48;;;;;;;32.96;26.65;100624.78;7393134;19;20050;-85
2023/06/07 06:19:53;;;;;;;2.13;1.50;;;;;;;33.04;26.62;100613.81;7391469;19;20039;-85
2023/06/07 06:22:19;;;;;;;2.90;2.00;;;;;;;32.99;26.75;100629.28;7392342;19;20486;-85
2023/06/07 06:24:45;;;;;;;4.60;2.47;;;;;;;32.94;26.70;100630.41;7389995;19;20018;-85
2023/06/07 06:27:12;;;;;;;2.38;0.85;;;;;;;32.85;26.82;100626.94;7396131;19;20382;-85
2023/06/07 06:29:39;;;;;;;1.65;0.80;;;;;;;32.89;27.18;100633.00;7388789;19;20110;-85
2023/06/07 06:32:06;;;;;;;5.80;1.85;;;;;;;32.42;27.14;100633.88;7390403;19;20027;-85
2023/06/07 06:34:32;;;;;;;2.08;1.63;;;;;;;32.23;27.17;100642.59;7390865;19;20014;-85
2023/06/07 06:36:59;;;;;;;3.30;1.77;;;;;;;32.13;27.34;100642.63;7389841;19;20018;-85
2023/06/07 06:39:26;;;;;;;3.53;2.10;;;;;;;32.31;27.24;100643.19;7388016;19;20019;-85
2023/06/07 06:41:52;;;;;;;5.05;1.85;;;;;;;32.23;27.37;100636.09;7390891;19;20006;-85
2023/06/07 06:44:30;;;;;;;3.08;2.03;;;;;;;32.19;27.23;100642.28;7390327;19;20015;-86
2023/06/07 06:46:56;;;;;;;3.15;1.48;;;;;;;32.22;27.48;100635.31;7388764;19;20057;-86
2023/06/07 06:49:22;;;;;;;7.28;2.10;;;;;;;32.30;27.52;100643.78;7388642;19;20014;-85
2023/06/07 06:51:51;;;;;;;2.40;1.90;;;;;;;32.20;27.87;100643.81;7391534;19;20453;-85
2023/06/07 06:54:17;;;;;;;4.85;1.95;;;;;;;32.26;27.83;100644.25;7390825;19;20019;-85
2023/06/07 06:56:43;;;;;;;3.40;1.85;;;;;;;32.32;28.09;100649.69;7389222;19;20026;-85
2023/06/07 06:59:10;;;;;;;3.90;1.83;;;;;;;32.25;27.85;100648.50;7390958;19;20335;-85
2023/06/07 07:01:47;;;;;;;1.23;1.17;;;;;;;32.38;27.75;100650.91;7398868;19;20724;-85
2023/06/07 07:04:17;;;;;;;2.92;1.30;;;;;;;29.50;30.50;100648.16;7396590;19;20018;-85
2023/06/07 07:06:43;;;;;;;3.90;1.65;;;;;;;31.92;27.63;100641.69;7397204;19;20014;-85
2023/06/07 07:09:12;;;;;;;5.65;2.13;;;;;;;32.27;27.78;100642.88;7396190;19;20039;-85
2023/06/07 07:11:38;;;;;;;4.45;1.60;;;;;;;32.51;27.87;100650.44;7397520;19;20014;-85
2023/06/07 07:14:04;;;;;;;5.90;2.15;;;;;;;31.98;28.23;100650.81;7400675;19;20011;-85
2023/06/07 07:16:31;;;;;;;4.40;1.60;;;;;;;32.63;27.40;100648.44;7394181;19;20680;-85
2023/06/07 07:18:57;;;;;;;4.88;1.95;;;;;;;32.74;27.56;100644.16;7399722;19;20026;-85
2023/06/07 07:21:26;;;;;;;3.47;1.60;;;;;;;32.78;27.24;100645.19;7398232;19;20384;-86
2023/06/07 07:23:52;;;;;;;2.38;2.00;;;;;;;32.86;27.11;100645.00;7398506;19;20017;-85
2023/06/07 07:26:18;;;;;;;0.93;0.50;;;;;;;33.02;27.40;100645.41;7398570;19;20014;-85
2023/06/07 07:28:44;;;;;;;1.45;0.90;;;;;;;33.13;26.83;100644.75;7395665;19;20022;-85
2023/06/07 07:31:11;;;;;;;4.10;1.60;;;;;;;33.13;26.84;100639.75;7397373;19;20029;-85
2023/06/07 07:33:38;;;;;;;9.30;1.55;;;;;;;33.37;27.08;100641.44;7396688;19;20426;-86
2023/06/07 07:36:04;;;;;;;1.98;0.60;;;;;;;33.36;26.93;100651.44;7394427;19;20010;-85
2023/06/07 07:38:32;;;;;;;1.42;1.08;;;;;;;33.47;26.37;100647.13;7396529;19;20014;-85
2023/06/07 07:40:59;;;;;;;0.88;0.88;;;;;;;33.58;26.85;100632.03;7396113;19;20386;-85
2023/06/07 07:43:25;;;;;;;1.15;0.85;;;;;;;33.63;26.74;100635.94;7398837;19;20496;-85
2023/06/07 07:45:51;;;;;;;0.63;0.55;;;;;;;33.41;26.90;100647.47;7397368;19;20022;-85
2023/06/07 07:48:17;;;;;;;2.05;0.75;;;;;;;33.36;26.83;100639.13;7395706;19;20099;-85
2023/06/07 07:50:44;;;;;;;1.85;0.65;;;;;;;33.44;26.90;100639.72;7396276;19;20018;-85
2023/06/07 07:53:10;;;;;;;0.57;0.52;;;;;;;33.54;27.21;100643.31;7397444;19;20025;-85
2023/06/07 07:55:36;;;;;;;1.05;0.93;;;;;;;33.65;27.20;100647.63;7401881;19;20018;-85
2023/06/07 07:58:02;;;;;;;1.92;0.65;;;;;;;33.78;26.75;100642.06;7398550;19;20035;-86
2023/06/07 08:00:29;;;;;;;1.27;0.63;;;;;;;33.50;26.63;100643.00;7401272;19;20391;-84
2023/06/07 08:02:56;;;;;;;0.68;0.68;;;;;;;33.46;26.85;100642.72;7399547;19;20078;-84
2023/06/07 08:05:22;;;;;;;4.78;0.55;;;;;;;33.57;27.13;100639.16;7398188;19;20014;-85
2023/06/07 08:07:48;;;;;;;0.93;0.80;;;;;;;33.33;27.07;100643.28;7402802;19;20014;-83
2023/06/07 08:10:14;;;;;;;1.75;0.30;;;;;;;33.49;26.95;100641.47;7395497;19;20066;-84
2023/06/07 08:12:40;;;;;;;0.30;0.20;;;;;;;33.72;26.70;100641.66;7401851;19;20007;-85
2023/06/07 08:15:09;;;;;;;0.32;0.25;;;;;;;33.74;27.08;100633.13;7394799;19;20011;-85
2023/06/07 08:17:35;;;;;;;1.65;0.85;;;;;;;33.81;26.96;100637.91;7396469;19;20025;-84
2023/06/07 08:20:04;;;;;;;1.33;0.43;;;;;;;33.88;27.22;100636.19;7401126;19;20025;-84
2023/06/07 08:22:30;;;;;;;0.30;0.28;;;;;;;34.02;26.80;100628.50;7395980;19;20070;-85
2023/06/07 08:24:56;;;;;;;3.72;0.73;;;;;;;34.12;26.66;100620.47;7395615;19;20010;-85
2023/06/07 08:27:23;;;;;;;1.95;0.20;;;;;;;34.15;26.80;100620.00;7398967;19;20007;-86
2023/06/07 08:29:49;;;;;;;0.40;0.40;;;;;;;34.37;26.37;100622.81;7392666;19;20029;-85
2023/06/07 08:32:15;;;;;;;2.05;0.90;;;;;;;34.46;26.22;100624.84;7394687;19;20010;-85
2023/06/07 08:34:41;;;;;;;3.30;0.43;;;;;;;34.39;26.36;100620.81;7393707;19;20033;-85
2023/06/07 08:37:08;;;;;;;1.42;0.50;;;;;;;34.14;26.60;100627.13;7393911;19;20010;-85
2023/06/07 08:39:34;;;;;;;0.20;0.20;;;;;;;34.29;26.60;100629.56;7395017;19;20022;-85
2023/06/07 08:42:01;;;;;;;4.18;0.32;;;;;;;34.20;26.39;100626.75;7399388;19;20025;-85
2023/06/07 08:44:27;;;;;;;7.43;0.65;;;;;;;34.28;26.58;100622.25;7393407;19;20023;-85
2023/06/07 08:46:56;;;;;;;0.38;0.20;;;;;;;34.49;26.55;100630.13;7396249;19;20403;-85
2023/06/07 08:49:24;;;;;;;3.50;0.45;;;;;;;34.76;26.08;100635.47;7391671;19;20010;-85
2023/06/07 08:51:53;;;;;;;0.40;0.40;;;;;;;34.71;26.25;100622.13;7392349;19;20010;-85
2023/06/07 08:54:24;;;;;;;0.10;0.00;;;;;;;34.64;26.53;100631.78;7398369;19;20028;-85
2023/06/07 08:56:52;;;;;;;1.92;0.47;;;;;;;34.96;26.01;100630.91;7393817;19;20497;-86
2023/06/07 08:59:18;;;;;;;0.60;0.38;;;;;;;34.65;26.42;100630.44;7391645;19;20013;-85
2023/06/07 09:01:45;;;;;;;2.15;0.10;;;;;;;34.60;26.44;100637.31;7395405;19;20021;-84
2023/06/07 09:04:11;;;;;;;1.00;0.30;;;;;;;34.72;26.23;100635.19;7393018;19;20062;-83
2023/06/07 09:06:37;;;;;;;0.32;0.20;;;;;;;34.82;26.03;100630.06;7395707;19;20087;-85
2023/06/07 09:09:04;;;;;;;1.67;0.43;;;;;;;34.71;26.45;100628.66;7391604;19;20053;-83
2023/06/07 09:11:30;;;;;;;1.80;0.60;;;;;;;34.76;26.31;100623.88;7394684;19;20465;-84
2023/06/07 09:13:58;;;;;;;0.40;0.30;;;;;;;34.79;25.84;100631.28;7392948;19;20376;-84
2023/06/07 09:16:25;;;;;;;2.38;0.30;;;;;;;34.79;25.96;100622.63;7392576;19;20018;-86
2023/06/07 09:18:54;;;;;;;0.20;0.10;;;;;;;34.86;25.83;100615.81;7397068;19;20441;-84
2023/06/07 09:21:23;;;;;;;1.85;0.45;;;;;;;34.82;26.14;100615.56;7394548;19;20441;-84
2023/06/07 09:23:50;;;;;;;0.20;0.15;;;;;;;34.87;25.89;100620.25;7392255;19;20502;-84
2023/06/07 09:26:22;;;;;;;9.52;0.45;;;;;;;34.85;26.27;100628.78;7389837;19;20043;-84
2023/06/07 09:28:51;;;;;;;0.30;0.15;;;;;;;35.02;26.45;100628.44;7395758;19;20482;-84
2023/06/07 09:31:32;;;;;;;1.50;0.45;;;;;;;35.05;26.19;100621.38;7393094;19;20022;-84
2023/06/07 09:33:58;;;;;;;0.43;0.00;;;;;;;35.17;26.09;100624.28;7392144;19;20384;-84
2023/06/07 09:36:27;;;;;;;0.90;0.45;;;;;;;35.12;25.88;100620.38;7389054;19;20028;-84
2023/06/07 09:38:53;;;;;;;0.82;0.20;;;;;;;35.17;26.11;100619.25;7389987;19;20017;-84
2023/06/07 09:41:30;;;;;;;0.47;0.40;;;;;;;35.09;26.16;100615.84;7397619;19;20366;-84
2023/06/07 09:43:56;;;;;;;1.40;0.30;;;;;;;35.18;25.85;100623.63;7394004;19;20014;-84
2023/06/07 09:46:22;;;;;;;1.25;0.20;;;;;;;35.08;26.24;100623.03;7392918;19;20018;-84
2023/06/07 09:48:53;;;;;;;0.73;0.30;;;;;;;35.25;26.20;100613.94;7390150;19;20010;-85
2023/06/07 09:51:20;;;;;;;7.78;0.68;;;;;;;35.27;26.26;100614.06;7392399;19;20018;-85
2023/06/07 09:54:00;;;;;;;0.30;0.15;;;;;;;35.54;26.05;100620.06;7391320;19;20452;-84
2023/06/07 09:56:27;;;;;;;2.17;0.30;;;;;;;35.67;25.66;100612.84;7391651;19;20015;-85
2023/06/07 09:59:16;;;;;;;1.92;0.20;;;;;;;35.76;25.82;100606.88;7389650;19;20251;-85
2023/06/07 10:01:45;;;;;;;0.75;0.30;;;;;;;35.94;25.74;100612.22;7392010;19;20023;-85
2023/06/07 10:04:12;;;;;;;0.90;0.45;;;;;;;35.87;25.91;100616.16;7393559;19;20022;-85
2023/06/07 10:06:45;;;;;;;2.33;0.20;;;;;;;35.97;25.26;100616.78;7392541;19;20019;-84
2023/06/07 10:09:12;;;;;;;1.38;0.63;;;;;;;35.92;25.38;100620.78;7391099;19;20019;-84
2023/06/07 10:11:42;;;;;;;0.50;0.17;;;;;;;35.91;25.42;100616.41;7390554;19;20089;-84
2023/06/07 10:14:16;;;;;;;0.10;0.10;;;;;;;36.09;25.06;100614.56;7389347;19;20042;-84
2023/06/07 10:16:46;;;;;;;1.50;0.28;;;;;;;36.09;25.49;100615.31;7391676;19;20018;-84
2023/06/07 10:19:25;;;;;;;1.33;0.30;;;;;;;36.09;25.24;100614.56;7393079;19;20035;-84
2023/06/07 10:21:55;;;;;;;0.50;0.25;;;;;;;36.22;25.43;100610.97;7390310;19;20039;-84
2023/06/07 10:24:26;;;;;;;4.32;0.20;;;;;;;36.12;25.39;100616.94;7390845;19;20415;-83
2023/06/07 10:26:57;;;;;;;0.30;0.25;;;;;;;35.92;25.32;100612.84;7389449;19;20010;-81
2023/06/07 10:29:35;;;;;;;5.57;0.70;;;;;;;36.11;24.95;100611.78;7392786;19;20023;-82
2023/06/07 10:32:09;;;;;;;1.67;0.57;;;;;;;36.21;25.40;100618.16;7389610;19;20022;-82
2023/06/07 10:34:37;;;;;;;1.73;0.20;;;;;;;36.44;24.96;100615.13;7389431;19;20089;-82
2023/06/07 10:37:07;;;;;;;1.10;0.20;;;;;;;36.23;25.58;100615.38;7388175;19;20014;-85
2023/06/07 10:39:34;;;;;;;0.43;0.27;;;;;;;36.13;25.26;100614.78;7389453;19;20093;-85
2023/06/07 10:42:01;;;;;;;2.33;0.10;;;;;;;36.21;25.33;100616.00;7393456;19;20038;-86
2023/06/07 10:44:30;;;;;;;0.10;0.10;;;;;;;36.49;25.23;100611.06;7390291;19;20026;-85
2023/06/07 10:47:21;;;;;;;0.45;0.25;;;;;;;36.63;25.23;100608.19;7388588;19;20469;-85
2023/06/07 10:49:48;;;;;;;12.90;0.43;;;;;;;36.66;25.01;100619.28;7389663;19;20011;-87
2023/06/07 10:52:15;;;;;;;2.58;0.32;;;;;;;36.69;25.23;100623.06;7391825;19;20027;-89
2023/06/07 10:54:43;;;;;;;0.35;0.35;;;;;;;36.62;24.92;100613.25;7390000;19;20018;-87
2023/06/07 10:57:09;;;;;;;0.10;0.00;;;;;;;36.75;25.53;100612.53;7390685;19;20015;-87
2023/06/07 10:59:36;;;;;;;1.55;0.38;;;;;;;36.70;25.07;100610.03;7389422;19;20022;-86
2023/06/07 11:02:26;;;;;;;0.20;0.10;;;;;;;36.51;25.23;100608.28;7392816;19;20018;-86
2023/06/07 11:04:59;;;;;;;1.13;0.23;;;;;;;36.50;25.25;100606.75;7392485;19;20034;-86
2023/06/07 11:07:30;;;;;;;1.15;0.28;;;;;;;36.79;25.18;100612.72;7389717;19;20023;-87
2023/06/07 11:10:00;;;;;;;0.40;0.20;;;;;;;37.22;24.98;100598.34;7393521;19;20018;-87
2023/06/07 11:12:35;;;;;;;0.47;0.30;;;;;;;37.45;24.64;100603.19;7394464;19;20018;-89
2023/06/07 11:15:16;;;;;;;3.67;0.40;;;;;;;37.35;24.32;100600.50;7389228;19;20006;-87
2023/06/07 11:18:08;;;;;;;1.50;0.28;;;;;;;37.59;24.72;100598.06;7393379;19;20027;-88
2023/06/07 11:20:41;;;;;;;2.75;0.40;;;;;;;37.74;24.52;100592.31;7390369;19;20029;-79
2023/06/07 11:23:27;;;;;;;0.10;0.10;;;;;;;37.97;23.91;100606.59;7390158;19;20364;-81
2023/06/07 11:26:06;;;;;;;1.65;0.10;;;;;;;37.74;23.92;100589.41;7390055;19;20100;-81
2023/06/07 11:28:34;;;;;;;8.38;0.70;;;;;;;37.68;24.23;100582.56;7390882;19;20026;-82
2023/06/07 11:31:03;;;;;;;1.70;0.50;;;;;;;37.70;23.96;100589.22;7387890;19;20018;-81